ADDS METAR Data INFO
IDs: Format: Raw Decoded Include TAF

Data at: 0234 UTC 26 Jul 2017

KSJT 260151Z AUTO 15004KT 10SM CLR 32/15 A3002 RMK AO2 SLP139 T03170150
KSJT 260051Z 16008KT 10SM CLR 34/16 A3002 RMK AO2 SLP137 T03440156
KSJT 252351Z 18009G16KT 10SM CLR 36/16 A3001 RMK AO2 SLP136 T03560156 10372 20344 55007
KSJT 252251Z 18011KT 10SM SCT075 36/16 A3001 RMK AO2 SLP134 T03610161
KSJT 252151Z 16014G19KT 10SM FEW090 SCT110 36/17 A3002 RMK AO2 SLP140 T03610167
KSJT 252051Z 16007G18KT 10SM SCT070 BKN085 BKN100 36/17 A3004 RMK AO2 SLP144 T03560172 58016
KSJT 251951Z 18010G17KT 10SM SCT065 SCT080 36/17 A3005 RMK AO2 SLP150 T03560172
KSJT 251851Z 17007G16KT 10SM SCT060 36/18 A3007 RMK AO2 SLP154 T03560183
KSJT 251751Z 21010KT 10SM FEW048 34/18 A3008 RMK AO2 SLP161 T03440183 10344 20211 58005
KSJT 251651Z 18010KT 10SM CLR 32/20 A3009 RMK AO2 SLP164 T03220200
KSJT 251551Z 18009KT 10SM CLR 31/21 A3010 RMK AO2 SLP168 T03110206
KSJT 251451Z 20009KT 10SM CLR 29/21 A3010 RMK AO2 SLP167 T02890206 51013
KSJT 251351Z 19009KT 10SM CLR 26/21 A3009 RMK AO2 SLP165 T02610206
KSJT 251251Z 18006KT 10SM CLR 24/20 A3008 RMK AO2 SLP162 T02390200
KSJT 251151Z 00000KT 10SM CLR 21/18 A3006 RMK AO2 SLP159 T02110183 10239 20211 53008
KSJT 251051Z AUTO 19006KT 10SM CLR 22/19 A3005 RMK AO2 SLP149 T02220189
KSJT 250951Z AUTO 00000KT 10SM CLR 22/18 A3004 RMK AO2 SLP147 T02170178
KSJT 250851Z AUTO 00000KT 10SM CLR 22/18 A3003 RMK AO2 SLP144 T02220178 53005
KSJT 250751Z AUTO 00000KT 10SM CLR 22/17 A3002 RMK AO2 SLP138 T02220172
KSJT 250651Z AUTO 11005KT 10SM CLR 23/18 A3003 RMK AO2 SLP140 T02280178
KSJT 250551Z AUTO 00000KT 10SM CLR 23/18 A3002 RMK AO2 SLP139 T02280183 10272 20228 403830222 50006
KSJT 250451Z AUTO 02003KT 10SM CLR 23/19 A3002 RMK AO2 SLP140 T02330189
KSJT 250351Z AUTO 15003KT 10SM CLR 24/19 A3000 RMK AO2 SLP134 T02440194
KSJT 250251Z AUTO 16004KT 10SM CLR 26/20 A3000 RMK AO2 SLP133 T02560200 53002
KSJT 250151Z AUTO 18006KT 10SM CLR 27/18 A2998 RMK AO2 SLP128 T02670183
KSJT 250051Z 16010KT 10SM CLR 26/19 A2998 RMK AO2 LTG DSNT SW SLP129 T02610194
KSJT 250004Z 18016G23KT 10SM CLR 26/19 A2999 RMK AO2 LTG DSNT S AND SW T02560194
KSJT 242351Z 18015G23KT 10SM VCTS FEW075 26/18 A2999 RMK AO2 PK WND 13026/2305 WSHFT 2258 LTG DSNT S AND SW TSB14E48 SLP135 T02610183 10383 20261 53015
KSJT 242314Z 18013G26KT 10SM TS FEW080 FEW110 31/18 A2996 RMK AO2 PK WND 13026/2305 WSHFT 2258 LTG DSNT SE-SW TSB14 T03110178
KSJT 242305Z 13019G26KT 10SM VCTS SCT085 BKN100 32/18 A2996 RMK AO2 PK WND 13026/2305 WSHFT 2251 LTG DSNT S AND SW T03220183
KSJT 242251Z 07012KT 10SM BKN095 32/19 A2995 RMK AO2 WSHFT 2234 LTG DSNT S AND SW SLP117 T03220189
KSJT 242249Z 07014KT 10SM BKN100 32/19 A2995 RMK AO2 WSHFT 2234 LTG DSNT S AND SW
KSJT 242216Z 32009KT 10SM VCTS FEW080 FEW120 33/17 A2994 RMK AO2 LTG DSNT S AND SW T03280172
KSJT 242151Z 30007KT 10SM FEW120 32/18 A2995 RMK AO2 WSHFT 2123 LTG DSNT N TSB11E39 SLP115 T03170178
KSJT 242139Z 30010KT 10SM VCTS SCT090 31/17 A2994 RMK AO2 WSHFT 2123 LTG DSNT N AND W TSB11E39 T03110172
KSJT 242111Z 12009KT 10SM TS FEW090 SCT110 35/16 A2993 RMK AO2 LTG DSNT N AND W TSB11 T03500156
KSJT 242051Z 11014KT 10SM SCT095 36/16 A2993 RMK AO2 LTG DSNT NW-NE SLP106 T03560161 57024
KSJT 241951Z 09012G22KT 10SM FEW100 38/16 A2995 RMK AO2 SLP113 T03780161
KSJT 241851Z VRB06KT 10SM FEW070 SCT095 37/17 A2998 RMK AO2 SLP125 T03670167
KSJT 241751Z 16009KT 10SM CLR 34/17 A3001 RMK AO2 SLP133 T03440172 10344 20222 58005
KSJT 241651Z 00000KT 10SM CLR 32/18 A3002 RMK AO2 SLP139 T03170183
KSJT 241551Z 17006KT 10SM CLR 31/18 A3002 RMK AO2 SLP141 T03060183
KSJT 241451Z VRB06KT 10SM CLR 29/18 A3002 RMK AO2 SLP141 T02940183 53003